sensor_id;sensor_type;location;lat;lon;timestamp;temperature;humidity
59148;DHT22;44930;52.878;6.168;2022-07-23T00:01:34;13.00;99.90
59148;DHT22;44930;52.878;6.168;2022-07-23T00:04:03;13.20;99.90
59148;DHT22;44930;52.878;6.168;2022-07-23T00:06:29;13.40;99.90
59148;DHT22;44930;52.878;6.168;2022-07-23T00:08:54;13.20;99.90
59148;DHT22;44930;52.878;6.168;2022-07-23T00:11:20;12.70;99.90
59148;DHT22;44930;52.878;6.168;2022-07-23T00:13:47;13.00;99.90
59148;DHT22;44930;52.878;6.168;2022-07-23T00:16:13;13.20;99.90
59148;DHT22;44930;52.878;6.168;2022-07-23T00:18:38;13.50;99.90
59148;DHT22;44930;52.878;6.168;2022-07-23T00:21:04;12.90;99.90
59148;DHT22;44930;52.878;6.168;2022-07-23T00:23:30;12.80;99.90
59148;DHT22;44930;52.878;6.168;2022-07-23T00:25:56;13.30;99.90
59148;DHT22;44930;52.878;6.168;2022-07-23T00:28:21;12.30;99.90
59148;DHT22;44930;52.878;6.168;2022-07-23T00:30:47;12.90;99.90
59148;DHT22;44930;52.878;6.168;2022-07-23T00:33:13;13.00;99.90
59148;DHT22;44930;52.878;6.168;2022-07-23T00:35:40;13.00;99.90
59148;DHT22;44930;52.878;6.168;2022-07-23T00:38:08;12.50;99.90
59148;DHT22;44930;52.878;6.168;2022-07-23T00:40:35;13.20;99.90
59148;DHT22;44930;52.878;6.168;2022-07-23T00:43:01;12.70;99.90
59148;DHT22;44930;52.878;6.168;2022-07-23T00:45:27;12.30;99.90
59148;DHT22;44930;52.878;6.168;2022-07-23T00:47:53;12.80;99.90
59148;DHT22;44930;52.878;6.168;2022-07-23T00:50:18;12.40;99.90
59148;DHT22;44930;52.878;6.168;2022-07-23T00:52:44;12.50;99.90
59148;DHT22;44930;52.878;6.168;2022-07-23T00:55:11;12.60;99.90
59148;DHT22;44930;52.878;6.168;2022-07-23T00:57:40;13.10;99.90
59148;DHT22;44930;52.878;6.168;2022-07-23T01:00:09;12.80;99.90
59148;DHT22;44930;52.878;6.168;2022-07-23T01:02:36;12.50;99.90
59148;DHT22;44930;52.878;6.168;2022-07-23T01:05:02;12.60;99.90
59148;DHT22;44930;52.878;6.168;2022-07-23T01:07:28;12.30;99.90
59148;DHT22;44930;52.878;6.168;2022-07-23T01:09:54;12.40;99.90
59148;DHT22;44930;52.878;6.168;2022-07-23T01:12:19;13.00;99.90
59148;DHT22;44930;52.878;6.168;2022-07-23T01:14:56;12.30;99.90
59148;DHT22;44930;52.878;6.168;2022-07-23T01:17:22;12.60;99.90
59148;DHT22;44930;52.878;6.168;2022-07-23T01:19:48;12.40;99.90
59148;DHT22;44930;52.878;6.168;2022-07-23T01:22:14;12.40;99.90
59148;DHT22;44930;52.878;6.168;2022-07-23T01:24:40;12.40;99.90
59148;DHT22;44930;52.878;6.168;2022-07-23T01:27:06;12.40;99.90
59148;DHT22;44930;52.878;6.168;2022-07-23T01:29:31;12.30;99.90
59148;DHT22;44930;52.878;6.168;2022-07-23T01:31:57;12.20;99.90
59148;DHT22;44930;52.878;6.168;2022-07-23T01:34:23;12.30;99.90
59148;DHT22;44930;52.878;6.168;2022-07-23T01:36:48;12.40;99.90
59148;DHT22;44930;52.878;6.168;2022-07-23T01:39:14;11.90;99.90
59148;DHT22;44930;52.878;6.168;2022-07-23T01:41:39;12.50;99.90
59148;DHT22;44930;52.878;6.168;2022-07-23T01:44:06;12.30;99.90
59148;DHT22;44930;52.878;6.168;2022-07-23T01:46:31;12.50;99.90
59148;DHT22;44930;52.878;6.168;2022-07-23T01:48:57;12.10;99.90
59148;DHT22;44930;52.878;6.168;2022-07-23T01:51:22;12.50;99.90
59148;DHT22;44930;52.878;6.168;2022-07-23T01:53:48;12.50;99.90
59148;DHT22;44930;52.878;6.168;2022-07-23T01:56:14;12.10;99.90
59148;DHT22;44930;52.878;6.168;2022-07-23T01:58:40;12.00;99.90
59148;DHT22;44930;52.878;6.168;2022-07-23T02:01:06;11.80;99.90
59148;DHT22;44930;52.878;6.168;2022-07-23T02:03:31;12.00;99.90
59148;DHT22;44930;52.878;6.168;2022-07-23T02:05:57;12.20;99.90
59148;DHT22;44930;52.878;6.168;2022-07-23T02:08:23;12.50;99.90
59148;DHT22;44930;52.878;6.168;2022-07-23T02:10:48;12.10;99.90
59148;DHT22;44930;52.878;6.168;2022-07-23T02:13:16;11.90;99.90
59148;DHT22;44930;52.878;6.168;2022-07-23T02:15:47;12.20;99.90
59148;DHT22;44930;52.878;6.168;2022-07-23T02:18:15;12.10;99.90
59148;DHT22;44930;52.878;6.168;2022-07-23T02:20:41;11.90;99.90
59148;DHT22;44930;52.878;6.168;2022-07-23T02:23:07;11.80;99.90
59148;DHT22;44930;52.878;6.168;2022-07-23T02:25:34;11.90;99.90
59148;DHT22;44930;52.878;6.168;2022-07-23T02:27:59;11.50;99.90
59148;DHT22;44930;52.878;6.168;2022-07-23T02:30:25;11.70;99.90
59148;DHT22;44930;52.878;6.168;2022-07-23T02:32:50;11.80;99.90
59148;DHT22;44930;52.878;6.168;2022-07-23T02:35:16;11.40;99.90
59148;DHT22;44930;52.878;6.168;2022-07-23T02:37:42;11.40;99.90
59148;DHT22;44930;52.878;6.168;2022-07-23T02:40:10;12.20;99.90
59148;DHT22;44930;52.878;6.168;2022-07-23T02:42:38;11.60;99.90
59148;DHT22;44930;52.878;6.168;2022-07-23T02:45:08;11.60;99.90
59148;DHT22;44930;52.878;6.168;2022-07-23T02:47:34;11.60;99.90
59148;DHT22;44930;52.878;6.168;2022-07-23T02:49:59;11.50;99.90
59148;DHT22;44930;52.878;6.168;2022-07-23T02:52:25;11.80;99.90
59148;DHT22;44930;52.878;6.168;2022-07-23T02:54:51;11.40;99.90
59148;DHT22;44930;52.878;6.168;2022-07-23T02:57:16;11.60;99.90
59148;DHT22;44930;52.878;6.168;2022-07-23T02:59:42;11.60;99.90
59148;DHT22;44930;52.878;6.168;2022-07-23T03:02:07;11.80;99.90
59148;DHT22;44930;52.878;6.168;2022-07-23T03:04:33;11.80;99.90
59148;DHT22;44930;52.878;6.168;2022-07-23T03:06:58;11.30;99.90
59148;DHT22;44930;52.878;6.168;2022-07-23T03:09:24;11.50;99.90
59148;DHT22;44930;52.878;6.168;2022-07-23T03:11:49;11.40;99.90
59148;DHT22;44930;52.878;6.168;2022-07-23T03:14:15;11.40;99.90
59148;DHT22;44930;52.878;6.168;2022-07-23T03:16:41;11.50;99.90
59148;DHT22;44930;52.878;6.168;2022-07-23T03:19:07;11.20;99.90
59148;DHT22;44930;52.878;6.168;2022-07-23T03:21:33;11.30;99.90
59148;DHT22;44930;52.878;6.168;2022-07-23T03:23:59;11.40;99.90
59148;DHT22;44930;52.878;6.168;2022-07-23T03:26:25;11.30;99.90
59148;DHT22;44930;52.878;6.168;2022-07-23T03:28:51;11.30;99.90
59148;DHT22;44930;52.878;6.168;2022-07-23T03:31:20;11.20;99.90
59148;DHT22;44930;52.878;6.168;2022-07-23T03:33:45;11.30;99.90
59148;DHT22;44930;52.878;6.168;2022-07-23T03:36:13;11.00;99.90
59148;DHT22;44930;52.878;6.168;2022-07-23T03:38:38;11.00;99.90
59148;DHT22;44930;52.878;6.168;2022-07-23T03:41:04;11.20;99.90
59148;DHT22;44930;52.878;6.168;2022-07-23T03:43:30;11.10;99.90
59148;DHT22;44930;52.878;6.168;2022-07-23T03:45:55;11.30;99.90
59148;DHT22;44930;52.878;6.168;2022-07-23T03:48:21;10.80;99.90
59148;DHT22;44930;52.878;6.168;2022-07-23T03:50:48;11.10;99.90
59148;DHT22;44930;52.878;6.168;2022-07-23T03:53:14;11.00;99.90
59148;DHT22;44930;52.878;6.168;2022-07-23T03:55:40;11.00;99.90
59148;DHT22;44930;52.878;6.168;2022-07-23T03:58:05;11.10;99.90
59148;DHT22;44930;52.878;6.168;2022-07-23T04:00:31;11.10;99.90
59148;DHT22;44930;52.878;6.168;2022-07-23T04:02:56;11.00;99.90
59148;DHT22;44930;52.878;6.168;2022-07-23T04:07:48;11.00;99.90
59148;DHT22;44930;52.878;6.168;2022-07-23T04:10:13;11.10;99.90
59148;DHT22;44930;52.878;6.168;2022-07-23T04:12:39;11.20;99.90
59148;DHT22;44930;52.878;6.168;2022-07-23T04:15:07;11.30;99.90
59148;DHT22;44930;52.878;6.168;2022-07-23T04:17:33;11.10;99.90
59148;DHT22;44930;52.878;6.168;2022-07-23T04:19:58;11.00;99.90
59148;DHT22;44930;52.878;6.168;2022-07-23T04:22:24;11.20;99.90
59148;DHT22;44930;52.878;6.168;2022-07-23T04:24:49;11.30;99.90
59148;DHT22;44930;52.878;6.168;2022-07-23T04:27:16;11.10;99.90
59148;DHT22;44930;52.878;6.168;2022-07-23T04:29:44;11.30;99.90
59148;DHT22;44930;52.878;6.168;2022-07-23T04:32:09;11.20;99.90
59148;DHT22;44930;52.878;6.168;2022-07-23T04:34:35;11.50;99.90
59148;DHT22;44930;52.878;6.168;2022-07-23T04:37:00;11.10;99.90
59148;DHT22;44930;52.878;6.168;2022-07-23T04:39:26;11.40;99.90
59148;DHT22;44930;52.878;6.168;2022-07-23T04:41:51;11.40;99.90
59148;DHT22;44930;52.878;6.168;2022-07-23T04:44:17;11.40;99.90
59148;DHT22;44930;52.878;6.168;2022-07-23T04:46:42;11.60;99.90
59148;DHT22;44930;52.878;6.168;2022-07-23T04:49:08;11.50;99.90
59148;DHT22;44930;52.878;6.168;2022-07-23T04:51:34;11.20;99.90
59148;DHT22;44930;52.878;6.168;2022-07-23T04:53:59;11.70;99.90
59148;DHT22;44930;52.878;6.168;2022-07-23T04:56:25;11.30;99.90
59148;DHT22;44930;52.878;6.168;2022-07-23T04:58:50;11.40;99.90
59148;DHT22;44930;52.878;6.168;2022-07-23T05:01:16;11.70;99.90
59148;DHT22;44930;52.878;6.168;2022-07-23T05:03:44;11.70;99.90
59148;DHT22;44930;52.878;6.168;2022-07-23T05:06:09;11.90;99.90
59148;DHT22;44930;52.878;6.168;2022-07-23T05:08:35;12.00;99.90
59148;DHT22;44930;52.878;6.168;2022-07-23T05:11:00;12.00;99.90
59148;DHT22;44930;52.878;6.168;2022-07-23T05:13:26;12.20;99.90
59148;DHT22;44930;52.878;6.168;2022-07-23T05:15:52;13.40;99.90
59148;DHT22;44930;52.878;6.168;2022-07-23T05:18:17;12.30;99.90
59148;DHT22;44930;52.878;6.168;2022-07-23T05:20:45;12.40;99.90
59148;DHT22;44930;52.878;6.168;2022-07-23T05:23:11;12.40;99.90
59148;DHT22;44930;52.878;6.168;2022-07-23T05:25:37;12.70;99.90
59148;DHT22;44930;52.878;6.168;2022-07-23T05:28:02;12.00;99.90
59148;DHT22;44930;52.878;6.168;2022-07-23T05:30:28;12.70;99.90
59148;DHT22;44930;52.878;6.168;2022-07-23T05:32:53;12.90;99.90
59148;DHT22;44930;52.878;6.168;2022-07-23T05:35:19;12.70;99.90
59148;DHT22;44930;52.878;6.168;2022-07-23T05:37:45;12.50;99.90
59148;DHT22;44930;52.878;6.168;2022-07-23T05:40:13;13.30;99.90
59148;DHT22;44930;52.878;6.168;2022-07-23T05:42:40;12.80;99.90
59148;DHT22;44930;52.878;6.168;2022-07-23T05:45:06;13.00;99.90
59148;DHT22;44930;52.878;6.168;2022-07-23T05:47:46;13.00;99.90
59148;DHT22;44930;52.878;6.168;2022-07-23T05:50:12;12.90;99.90
59148;DHT22;44930;52.878;6.168;2022-07-23T05:52:39;13.40;99.90
59148;DHT22;44930;52.878;6.168;2022-07-23T05:55:05;13.00;99.90
59148;DHT22;44930;52.878;6.168;2022-07-23T05:57:31;13.60;99.90
59148;DHT22;44930;52.878;6.168;2022-07-23T05:59:57;13.40;99.90
59148;DHT22;44930;52.878;6.168;2022-07-23T06:02:23;13.90;99.90
59148;DHT22;44930;52.878;6.168;2022-07-23T06:04:48;13.00;99.90
59148;DHT22;44930;52.878;6.168;2022-07-23T06:07:14;13.40;99.90
59148;DHT22;44930;52.878;6.168;2022-07-23T06:09:42;14.00;99.90
59148;DHT22;44930;52.878;6.168;2022-07-23T06:12:07;14.10;99.90
59148;DHT22;44930;52.878;6.168;2022-07-23T06:14:33;13.30;99.90
59148;DHT22;44930;52.878;6.168;2022-07-23T06:16:59;13.80;99.90
59148;DHT22;44930;52.878;6.168;2022-07-23T06:19:25;13.80;99.90
59148;DHT22;44930;52.878;6.168;2022-07-23T06:21:50;13.70;99.90
59148;DHT22;44930;52.878;6.168;2022-07-23T06:24:18;14.10;99.90
59148;DHT22;44930;52.878;6.168;2022-07-23T06:26:44;14.10;99.90
59148;DHT22;44930;52.878;6.168;2022-07-23T06:29:10;13.80;99.90
59148;DHT22;44930;52.878;6.168;2022-07-23T06:31:38;14.30;99.90
59148;DHT22;44930;52.878;6.168;2022-07-23T06:34:04;14.70;99.90
59148;DHT22;44930;52.878;6.168;2022-07-23T06:36:32;14.40;99.90
59148;DHT22;44930;52.878;6.168;2022-07-23T06:38:57;14.60;99.90
59148;DHT22;44930;52.878;6.168;2022-07-23T06:41:23;14.40;99.90
59148;DHT22;44930;52.878;6.168;2022-07-23T06:43:49;14.10;99.90
59148;DHT22;44930;52.878;6.168;2022-07-23T06:46:15;14.70;99.90
59148;DHT22;44930;52.878;6.168;2022-07-23T06:48:40;14.60;99.90
59148;DHT22;44930;52.878;6.168;2022-07-23T06:51:06;14.30;99.90
59148;DHT22;44930;52.878;6.168;2022-07-23T07:15:39;14.90;99.90
59148;DHT22;44930;52.878;6.168;2022-07-23T07:18:04;14.90;99.90
59148;DHT22;44930;52.878;6.168;2022-07-23T07:20:32;15.20;99.90
59148;DHT22;44930;52.878;6.168;2022-07-23T07:22:58;15.30;99.90
59148;DHT22;44930;52.878;6.168;2022-07-23T07:25:23;15.00;99.90
59148;DHT22;44930;52.878;6.168;2022-07-23T07:27:49;15.40;99.90
59148;DHT22;44930;52.878;6.168;2022-07-23T07:30:15;15.40;99.90
59148;DHT22;44930;52.878;6.168;2022-07-23T07:32:41;15.80;99.90
59148;DHT22;44930;52.878;6.168;2022-07-23T07:35:07;15.90;99.90
59148;DHT22;44930;52.878;6.168;2022-07-23T07:37:33;16.00;99.90
59148;DHT22;44930;52.878;6.168;2022-07-23T07:39:58;15.80;99.90
59148;DHT22;44930;52.878;6.168;2022-07-23T07:42:24;16.10;99.90
59148;DHT22;44930;52.878;6.168;2022-07-23T07:44:49;16.00;99.90
59148;DHT22;44930;52.878;6.168;2022-07-23T07:47:15;16.30;99.90
59148;DHT22;44930;52.878;6.168;2022-07-23T07:49:44;16.70;99.90
59148;DHT22;44930;52.878;6.168;2022-07-23T07:52:10;16.40;99.90
59148;DHT22;44930;52.878;6.168;2022-07-23T07:54:36;16.00;99.90
59148;DHT22;44930;52.878;6.168;2022-07-23T07:57:02;15.80;99.90
59148;DHT22;44930;52.878;6.168;2022-07-23T07:59:27;16.10;99.90
59148;DHT22;44930;52.878;6.168;2022-07-23T08:01:53;15.90;99.90
59148;DHT22;44930;52.878;6.168;2022-07-23T08:04:19;16.10;99.90
59148;DHT22;44930;52.878;6.168;2022-07-23T08:06:44;16.10;99.90
59148;DHT22;44930;52.878;6.168;2022-07-23T08:09:10;16.40;99.90
59148;DHT22;44930;52.878;6.168;2022-07-23T08:11:36;16.80;99.90
59148;DHT22;44930;52.878;6.168;2022-07-23T08:14:01;16.10;99.90
59148;DHT22;44930;52.878;6.168;2022-07-23T08:16:27;16.50;99.90
59148;DHT22;44930;52.878;6.168;2022-07-23T08:18:53;16.20;99.90
59148;DHT22;44930;52.878;6.168;2022-07-23T08:21:18;16.30;99.90
59148;DHT22;44930;52.878;6.168;2022-07-23T08:23:44;16.60;99.90
59148;DHT22;44930;52.878;6.168;2022-07-23T08:26:09;16.00;99.90
59148;DHT22;44930;52.878;6.168;2022-07-23T08:28:35;16.60;99.90
59148;DHT22;44930;52.878;6.168;2022-07-23T08:31:01;16.80;99.90
59148;DHT22;44930;52.878;6.168;2022-07-23T08:33:29;16.90;99.90
59148;DHT22;44930;52.878;6.168;2022-07-23T08:35:54;17.20;99.90
59148;DHT22;44930;52.878;6.168;2022-07-23T08:38:22;17.00;99.90
59148;DHT22;44930;52.878;6.168;2022-07-23T08:40:52;17.00;99.90
59148;DHT22;44930;52.878;6.168;2022-07-23T08:43:23;17.20;99.90
59148;DHT22;44930;52.878;6.168;2022-07-23T08:45:51;17.30;99.90
59148;DHT22;44930;52.878;6.168;2022-07-23T08:48:20;17.30;99.90
59148;DHT22;44930;52.878;6.168;2022-07-23T08:50:48;17.40;99.90
59148;DHT22;44930;52.878;6.168;2022-07-23T08:53:15;17.20;99.90
59148;DHT22;44930;52.878;6.168;2022-07-23T08:55:48;17.10;99.90
59148;DHT22;44930;52.878;6.168;2022-07-23T08:58:14;17.10;99.90
59148;DHT22;44930;52.878;6.168;2022-07-23T09:00:40;17.00;99.90
59148;DHT22;44930;52.878;6.168;2022-07-23T09:03:05;17.10;99.90
59148;DHT22;44930;52.878;6.168;2022-07-23T09:05:31;17.70;99.90
59148;DHT22;44930;52.878;6.168;2022-07-23T09:08:17;17.50;99.90
59148;DHT22;44930;52.878;6.168;2022-07-23T09:15:52;17.60;99.90
59148;DHT22;44930;52.878;6.168;2022-07-23T09:18:41;17.90;99.90
59148;DHT22;44930;52.878;6.168;2022-07-23T09:21:14;17.80;99.90
59148;DHT22;44930;52.878;6.168;2022-07-23T09:23:43;17.60;99.90
59148;DHT22;44930;52.878;6.168;2022-07-23T09:26:20;18.30;99.90
59148;DHT22;44930;52.878;6.168;2022-07-23T09:29:02;17.70;99.90
59148;DHT22;44930;52.878;6.168;2022-07-23T09:36:43;18.40;99.90
59148;DHT22;44930;52.878;6.168;2022-07-23T09:39:10;18.60;99.90
59148;DHT22;44930;52.878;6.168;2022-07-23T09:41:42;18.20;99.90
59148;DHT22;44930;52.878;6.168;2022-07-23T09:44:15;18.10;99.90
59148;DHT22;44930;52.878;6.168;2022-07-23T09:46:42;18.50;99.90
59148;DHT22;44930;52.878;6.168;2022-07-23T09:49:22;18.70;99.90
59148;DHT22;44930;52.878;6.168;2022-07-23T09:54:32;18.20;99.90
59148;DHT22;44930;52.878;6.168;2022-07-23T09:57:01;18.70;99.90
59148;DHT22;44930;52.878;6.168;2022-07-23T09:59:36;18.70;99.90
59148;DHT22;44930;52.878;6.168;2022-07-23T10:02:08;18.50;99.90
59148;DHT22;44930;52.878;6.168;2022-07-23T10:04:35;18.80;99.90
59148;DHT22;44930;52.878;6.168;2022-07-23T10:07:03;19.40;99.90
59148;DHT22;44930;52.878;6.168;2022-07-23T10:09:34;20.50;99.90
59148;DHT22;44930;52.878;6.168;2022-07-23T10:12:03;19.20;99.90
59148;DHT22;44930;52.878;6.168;2022-07-23T10:14:33;19.10;99.90
59148;DHT22;44930;52.878;6.168;2022-07-23T10:17:01;18.80;99.90
59148;DHT22;44930;52.878;6.168;2022-07-23T10:19:28;18.50;99.90
59148;DHT22;44930;52.878;6.168;2022-07-23T10:22:02;18.90;99.90
59148;DHT22;44930;52.878;6.168;2022-07-23T10:27:08;19.10;99.90
59148;DHT22;44930;52.878;6.168;2022-07-23T10:29:47;18.50;99.90
59148;DHT22;44930;52.878;6.168;2022-07-23T10:32:42;20.30;99.90
59148;DHT22;44930;52.878;6.168;2022-07-23T10:35:32;18.70;99.90
59148;DHT22;44930;52.878;6.168;2022-07-23T10:38:07;19.40;99.90
59148;DHT22;44930;52.878;6.168;2022-07-23T10:40:35;19.00;99.90
59148;DHT22;44930;52.878;6.168;2022-07-23T10:43:01;19.20;99.90
59148;DHT22;44930;52.878;6.168;2022-07-23T10:45:32;18.90;99.90
59148;DHT22;44930;52.878;6.168;2022-07-23T10:48:16;19.20;99.90
59148;DHT22;44930;52.878;6.168;2022-07-23T10:53:55;19.90;99.90
59148;DHT22;44930;52.878;6.168;2022-07-23T10:59:16;20.30;99.90
59148;DHT22;44930;52.878;6.168;2022-07-23T11:01:41;20.20;99.90
59148;DHT22;44930;52.878;6.168;2022-07-23T11:04:07;21.40;99.90
59148;DHT22;44930;52.878;6.168;2022-07-23T11:09:30;21.90;99.90
59148;DHT22;44930;52.878;6.168;2022-07-23T11:14:59;19.90;99.90
59148;DHT22;44930;52.878;6.168;2022-07-23T11:17:25;19.90;99.90
59148;DHT22;44930;52.878;6.168;2022-07-23T11:22:39;19.90;99.90
59148;DHT22;44930;52.878;6.168;2022-07-23T11:25:09;20.00;99.90
59148;DHT22;44930;52.878;6.168;2022-07-23T11:32:52;20.20;99.90
59148;DHT22;44930;52.878;6.168;2022-07-23T11:35:26;20.30;99.90
59148;DHT22;44930;52.878;6.168;2022-07-23T11:37:54;20.20;99.90
59148;DHT22;44930;52.878;6.168;2022-07-23T11:40:27;20.70;99.90
59148;DHT22;44930;52.878;6.168;2022-07-23T11:43:01;20.50;99.90
59148;DHT22;44930;52.878;6.168;2022-07-23T11:45:40;20.30;99.90
59148;DHT22;44930;52.878;6.168;2022-07-23T11:48:17;20.20;99.90
59148;DHT22;44930;52.878;6.168;2022-07-23T11:50:46;20.30;99.90
59148;DHT22;44930;52.878;6.168;2022-07-23T11:53:12;20.00;99.90
59148;DHT22;44930;52.878;6.168;2022-07-23T11:55:38;20.50;99.90
59148;DHT22;44930;52.878;6.168;2022-07-23T11:58:05;20.90;99.90
59148;DHT22;44930;52.878;6.168;2022-07-23T12:00:31;20.20;99.90
59148;DHT22;44930;52.878;6.168;2022-07-23T12:03:02;20.20;99.90
59148;DHT22;44930;52.878;6.168;2022-07-23T12:05:31;21.00;99.90
59148;DHT22;44930;52.878;6.168;2022-07-23T12:07:58;20.70;99.90
59148;DHT22;44930;52.878;6.168;2022-07-23T12:10:27;20.90;99.90
59148;DHT22;44930;52.878;6.168;2022-07-23T12:12:56;20.80;99.90
59148;DHT22;44930;52.878;6.168;2022-07-23T12:17:59;21.00;99.90
59148;DHT22;44930;52.878;6.168;2022-07-23T12:20:48;21.40;99.90
59148;DHT22;44930;52.878;6.168;2022-07-23T12:23:14;21.60;99.90
59148;DHT22;44930;52.878;6.168;2022-07-23T12:25:42;21.90;99.90
59148;DHT22;44930;52.878;6.168;2022-07-23T12:28:10;21.70;99.90
59148;DHT22;44930;52.878;6.168;2022-07-23T12:30:54;22.00;99.90
59148;DHT22;44930;52.878;6.168;2022-07-23T12:33:32;23.00;99.90
59148;DHT22;44930;52.878;6.168;2022-07-23T12:35:59;21.70;99.90
59148;DHT22;44930;52.878;6.168;2022-07-23T12:38:27;21.70;99.90
59148;DHT22;44930;52.878;6.168;2022-07-23T12:40:55;22.00;99.90
59148;DHT22;44930;52.878;6.168;2022-07-23T12:45:53;22.50;99.90
59148;DHT22;44930;52.878;6.168;2022-07-23T12:48:21;22.00;99.90
59148;DHT22;44930;52.878;6.168;2022-07-23T12:50:58;22.40;99.90
59148;DHT22;44930;52.878;6.168;2022-07-23T12:53:39;22.60;99.90
59148;DHT22;44930;52.878;6.168;2022-07-23T12:56:09;22.50;99.90
59148;DHT22;44930;52.878;6.168;2022-07-23T12:58:58;22.60;99.90
59148;DHT22;44930;52.878;6.168;2022-07-23T13:01:26;22.70;99.90
59148;DHT22;44930;52.878;6.168;2022-07-23T13:06:27;22.10;99.90
59148;DHT22;44930;52.878;6.168;2022-07-23T13:08:53;21.90;99.90
59148;DHT22;44930;52.878;6.168;2022-07-23T13:11:18;21.50;99.90
59148;DHT22;44930;52.878;6.168;2022-07-23T13:13:44;21.30;99.90
59148;DHT22;44930;52.878;6.168;2022-07-23T13:16:10;21.70;99.90
59148;DHT22;44930;52.878;6.168;2022-07-23T13:18:35;22.20;99.90
59148;DHT22;44930;52.878;6.168;2022-07-23T13:21:02;22.10;99.90
59148;DHT22;44930;52.878;6.168;2022-07-23T13:23:30;22.30;99.90
59148;DHT22;44930;52.878;6.168;2022-07-23T13:25:55;22.90;99.90
59148;DHT22;44930;52.878;6.168;2022-07-23T13:28:23;23.10;99.90
59148;DHT22;44930;52.878;6.168;2022-07-23T13:30:50;22.60;99.90
59148;DHT22;44930;52.878;6.168;2022-07-23T13:33:17;22.70;99.90
59148;DHT22;44930;52.878;6.168;2022-07-23T13:35:43;23.00;99.90
59148;DHT22;44930;52.878;6.168;2022-07-23T13:38:09;22.00;99.90
59148;DHT22;44930;52.878;6.168;2022-07-23T13:40:37;22.70;99.90
59148;DHT22;44930;52.878;6.168;2022-07-23T13:43:07;22.10;99.90
59148;DHT22;44930;52.878;6.168;2022-07-23T13:45:34;22.40;99.90
59148;DHT22;44930;52.878;6.168;2022-07-23T13:47:59;22.20;99.90
59148;DHT22;44930;52.878;6.168;2022-07-23T13:50:25;21.80;99.90
59148;DHT22;44930;52.878;6.168;2022-07-23T13:52:51;21.80;99.90
59148;DHT22;44930;52.878;6.168;2022-07-23T13:55:16;22.00;99.90
59148;DHT22;44930;52.878;6.168;2022-07-23T13:57:42;22.20;99.90
59148;DHT22;44930;52.878;6.168;2022-07-23T14:00:09;22.20;99.90
59148;DHT22;44930;52.878;6.168;2022-07-23T14:02:37;22.30;99.90
59148;DHT22;44930;52.878;6.168;2022-07-23T14:05:09;22.10;99.90
59148;DHT22;44930;52.878;6.168;2022-07-23T14:07:36;22.00;99.90
59148;DHT22;44930;52.878;6.168;2022-07-23T14:10:04;22.50;99.90
59148;DHT22;44930;52.878;6.168;2022-07-23T14:12:30;22.30;99.90
59148;DHT22;44930;52.878;6.168;2022-07-23T14:14:55;23.60;99.90
59148;DHT22;44930;52.878;6.168;2022-07-23T14:17:21;22.30;99.90
59148;DHT22;44930;52.878;6.168;2022-07-23T14:19:47;22.20;99.90
59148;DHT22;44930;52.878;6.168;2022-07-23T14:22:13;21.70;99.90
59148;DHT22;44930;52.878;6.168;2022-07-23T14:24:38;22.50;99.90
59148;DHT22;44930;52.878;6.168;2022-07-23T14:27:05;22.40;99.90
59148;DHT22;44930;52.878;6.168;2022-07-23T14:29:31;22.70;99.90
59148;DHT22;44930;52.878;6.168;2022-07-23T14:31:57;22.70;99.90
59148;DHT22;44930;52.878;6.168;2022-07-23T14:34:23;23.10;99.90
59148;DHT22;44930;52.878;6.168;2022-07-23T14:36:49;22.70;99.90
59148;DHT22;44930;52.878;6.168;2022-07-23T14:39:17;23.30;99.90
59148;DHT22;44930;52.878;6.168;2022-07-23T14:41:42;23.10;99.90
59148;DHT22;44930;52.878;6.168;2022-07-23T14:44:08;24.00;99.90
59148;DHT22;44930;52.878;6.168;2022-07-23T14:46:34;23.20;99.90
59148;DHT22;44930;52.878;6.168;2022-07-23T14:49:00;23.40;99.90
59148;DHT22;44930;52.878;6.168;2022-07-23T14:51:25;23.70;99.90
59148;DHT22;44930;52.878;6.168;2022-07-23T14:53:53;23.60;99.90
59148;DHT22;44930;52.878;6.168;2022-07-23T14:56:19;24.20;99.90
59148;DHT22;44930;52.878;6.168;2022-07-23T14:58:44;23.60;99.90
59148;DHT22;44930;52.878;6.168;2022-07-23T15:01:10;23.10;99.90
59148;DHT22;44930;52.878;6.168;2022-07-23T15:03:38;23.40;99.90
59148;DHT22;44930;52.878;6.168;2022-07-23T15:06:04;23.00;99.90
59148;DHT22;44930;52.878;6.168;2022-07-23T15:08:30;23.30;99.90
59148;DHT22;44930;52.878;6.168;2022-07-23T15:10:56;23.30;99.90
59148;DHT22;44930;52.878;6.168;2022-07-23T15:13:24;23.50;99.90
59148;DHT22;44930;52.878;6.168;2022-07-23T15:15:50;23.40;99.90
59148;DHT22;44930;52.878;6.168;2022-07-23T15:18:15;23.10;99.90
59148;DHT22;44930;52.878;6.168;2022-07-23T15:20:41;22.90;99.90
59148;DHT22;44930;52.878;6.168;2022-07-23T15:23:07;22.90;99.90
59148;DHT22;44930;52.878;6.168;2022-07-23T15:25:35;23.30;99.90
59148;DHT22;44930;52.878;6.168;2022-07-23T15:28:01;23.60;99.90
59148;DHT22;44930;52.878;6.168;2022-07-23T15:30:27;23.60;99.90
59148;DHT22;44930;52.878;6.168;2022-07-23T15:32:53;23.40;99.90
59148;DHT22;44930;52.878;6.168;2022-07-23T15:35:19;23.40;99.90
59148;DHT22;44930;52.878;6.168;2022-07-23T15:37:45;23.80;99.90
59148;DHT22;44930;52.878;6.168;2022-07-23T15:40:11;23.80;99.90
59148;DHT22;44930;52.878;6.168;2022-07-23T15:42:37;23.80;99.90
59148;DHT22;44930;52.878;6.168;2022-07-23T15:45:06;23.70;99.90
59148;DHT22;44930;52.878;6.168;2022-07-23T15:47:32;24.10;99.90
59148;DHT22;44930;52.878;6.168;2022-07-23T15:49:57;24.20;99.90
59148;DHT22;44930;52.878;6.168;2022-07-23T15:52:23;24.60;99.90
59148;DHT22;44930;52.878;6.168;2022-07-23T15:54:48;24.40;99.90
59148;DHT22;44930;52.878;6.168;2022-07-23T15:57:14;26.20;99.90
59148;DHT22;44930;52.878;6.168;2022-07-23T15:59:40;24.60;99.90
59148;DHT22;44930;52.878;6.168;2022-07-23T16:02:06;25.10;99.90
59148;DHT22;44930;52.878;6.168;2022-07-23T16:04:32;25.20;99.90
59148;DHT22;44930;52.878;6.168;2022-07-23T16:06:58;24.90;99.90
59148;DHT22;44930;52.878;6.168;2022-07-23T16:09:24;24.70;99.90
59148;DHT22;44930;52.878;6.168;2022-07-23T16:11:53;24.40;99.90
59148;DHT22;44930;52.878;6.168;2022-07-23T16:14:20;24.20;99.90
59148;DHT22;44930;52.878;6.168;2022-07-23T16:16:46;23.60;99.90
59148;DHT22;44930;52.878;6.168;2022-07-23T16:19:11;24.70;99.90
59148;DHT22;44930;52.878;6.168;2022-07-23T16:21:41;22.80;99.90
59148;DHT22;44930;52.878;6.168;2022-07-23T16:24:07;24.50;99.90
59148;DHT22;44930;52.878;6.168;2022-07-23T16:26:33;22.80;99.90
59148;DHT22;44930;52.878;6.168;2022-07-23T16:28:58;22.70;99.90
59148;DHT22;44930;52.878;6.168;2022-07-23T16:31:24;23.10;99.90
59148;DHT22;44930;52.878;6.168;2022-07-23T16:33:52;22.40;99.90
59148;DHT22;44930;52.878;6.168;2022-07-23T16:36:18;22.80;99.90
59148;DHT22;44930;52.878;6.168;2022-07-23T16:38:44;22.90;99.90